Decoded Metar for KD57 ( in ) (IATA:) | Meteo·Mobile Aviation Weather
aviador You're here:

KD57 Decoded Metar

in
Report Time2019-01-19 01:35:00
UTC Time2019-01-19 01:48:37
Flight Rules vfr VFR
Wind100° at 04 kt
W.Rank100° ranks 22
Current wind is below 100° avg. (8.2)
Visibility9999 m
Phenomena:N/A
Clouds:Scattered 023 Hf
Broken 037 Hf
Overcast 060 Hf
Expected CloudBase > 1,600 ft AGL from Temp-Dew spread
Ceiling3,700 ft
Temp-18°C
Dew Point-22°C (71% RH)
AAT-23.1°C
QNH1027 hPa
Raw Report
KD57 190135Z AUTO 10004KT 10SM SCT023 BKN037 OVC060 M18/M22 A3033
RMK AO2 PWINO=

Extra information for KD57:More info

Social comments